SIN weather

Singapore Changi Airport
Singapore, South East, Singapore

Public forecast

Using degrees Celsius for public forecast. Weather courtesy of forecast.io.

Current aviation weather report (METAR) for Singapore Changi Airport

Retrieved 2019/10/23 02:00 UTC (5 minutes ago):

WSSS 230200Z VRB02KT 7000 FEW020 SCT060 BKN140 28/25 Q1010 NOSIG

Aviation forecast (TAF) for Singapore Changi Airport

Retrieved 2019-10-23 00:08 UTC (2 hours ago):

TAF WSSS 222300Z 2300/2406 14007KT 9999 FEW015 SCT020 TEMPO 2306/2309 3000 TSRA FEW012CB BKN015